Flinterbirka — PHFQ — position and weather

sailwx.info

Track history (hours):
 
Tides and Currents Weather Stations Pressure Air Temp Water Temp Dewpoint Dewpoint Depression Visibility Wind Speed Wind Dir Waves Ship Positions

Flinterbirka

Last reported at 2015-Apr-22 03:33 UTC. Time now 2015-Apr-22 03:53 UTC.
Position N 54°21' E 009°54'.

Length 81 m; draft 5.5 m.

Type: Ship. MMSI: 246525000.

Date/timePositionNaut miles runAvg speedWind from/ knotsBaromVisibWave heightAir tempDewpointWater temp
2015-Apr-22 03:33N 54°21' E 009°54'7 7.1
2015-Apr-22 02:33N 54°22' E 010°06'1 1.3
2015-Apr-22 01:33N 54°22' E 010°08'3 3.4
2015-Apr-22 00:33N 54°24' E 010°12'10 9.2
2015-Apr-21 23:31N 54°32' E 010°23'  
2015-Apr-18 09:08N 54°43' E 010°46'711.1
2015-Apr-18 08:32N 54°37' E 010°40'1111.2
2015-Apr-18 07:33N 54°31' E 010°25'1110.6
2015-Apr-18 06:33N 54°23' E 010°12'2 2.2
2015-Apr-18 05:33N 54°22' E 010°09'5 4.7
2015-Apr-18 04:33N 54°21' E 010°01'8 7.4
2015-Apr-18 03:28N 54°21' E 009°47'11 5.6
2015-Apr-18 01:32N 54°13' E 009°35'9 6.5
2015-Apr-18 00:10N 54°09' E 009°22'4 6.6
2015-Apr-17 23:33N 54°05' E 009°19'8 8.4
2015-Apr-17 22:33N 53°57' E 009°15'1 1.0
2015-Apr-17 21:33N 53°57' E 009°14'4 4.1
2015-Apr-17 20:33N 53°54' E 009°09'2 1.6
2015-Apr-17 19:33N 53°53' E 009°06'3 3.2
2015-Apr-17 18:33N 53°52' E 009°01'8 8.0
2015-Apr-17 17:33N 53°50' E 008°48'8 7.5
2015-Apr-17 16:33N 53°56' E 008°39'8 7.9
2015-Apr-17 15:33N 53°59' E 008°27'9 8.8
2015-Apr-17 14:33N 53°60' E 008°12'9 9.4
2015-Apr-17 13:33N 53°58' E 007°56'10 9.8
2015-Apr-17 12:33N 53°56' E 007°40'1010.3
2015-Apr-17 11:33N 53°53' E 007°23'4611.3
2015-Apr-17 07:26N 53°41' E 006°07'1112.1
2015-Apr-17 06:34N 53°38' E 005°50'1212.3
2015-Apr-17 05:33N 53°34' E 005°30'1312.5
2015-Apr-17 04:33N 53°30' E 005°10'1312.8
2015-Apr-17 03:33N 53°26' E 004°50'5911.1
2015-Apr-16 22:14N 53°10' E 003°15'2810.5
2015-Apr-16 19:33N 53°01' E 002°30'1111.0
2015-Apr-16 18:33N 52°59' E 002°12'1212.1
2015-Apr-16 17:33N 52°59' E 001°52'1312.8
2015-Apr-16 16:33N 53°01' E 001°31'1312.7
2015-Apr-16 15:33N 53°01' E 001°09'4 0.1
2015-Apr-15 07:29N 53°01' E 001°03'38 1.1
2015-Apr-13 19:33N 53°30' E 000°20'1111.1
2015-Apr-13 18:34N 53°35' E 000°04'10 9.5
2015-Apr-13 17:33N 53°38' W 000°11'0 0.1
2015-Apr-13 16:31N 53°38' W 000°11'0 0.0
2015-Apr-13 15:31N 53°38' W 000°11'0 0.0
2015-Apr-13 14:27N 53°38' W 000°11'0 0.0
2015-Apr-13 13:33N 53°38' W 000°11'0 0.0
2015-Apr-13 12:32N 53°38' W 000°11'0 0.0
2015-Apr-13 11:29N 53°38' W 000°11'0 0.0
2015-Apr-13 10:32N 53°38' W 000°11'0 0.0
2015-Apr-13 09:31N 53°38' W 000°11'0 0.0
2015-Apr-13 08:31N 53°38' W 000°11'0 0.0
2015-Apr-13 07:33N 53°38' W 000°11'0 0.1
2015-Apr-13 06:30N 53°38' W 000°11'0 0.0
2015-Apr-13 05:29N 53°38' W 000°11'0 0.0
2015-Apr-13 04:32N 53°38' W 000°11'0 0.0
2015-Apr-13 03:32N 53°38' W 000°11'0 0.0
2015-Apr-13 02:31N 53°38' W 000°11'0 0.0
2015-Apr-13 01:28N 53°38' W 000°11'0 0.0
2015-Apr-13 00:33N 53°38' W 000°11'0 0.0
2015-Apr-12 23:33N 53°38' W 000°11'0 0.0
2015-Apr-12 22:29N 53°38' W 000°11'0 0.0
2015-Apr-12 21:32N 53°38' W 000°11'0 0.0
2015-Apr-12 20:31N 53°38' W 000°11'0 0.0
2015-Apr-12 19:25N 53°38' W 000°11'0 0.0
2015-Apr-12 18:31N 53°38' W 000°11'0 0.0
2015-Apr-12 17:33N 53°38' W 000°11'0 0.0
2015-Apr-12 16:33N 53°38' W 000°11'0 0.0
2015-Apr-12 15:32N 53°38' W 000°11'0 0.0
2015-Apr-12 14:32N 53°38' W 000°11'0 0.0
2015-Apr-12 13:31N 53°38' W 000°11'0 0.0
2015-Apr-12 12:31N 53°38' W 000°11'0 0.0
2015-Apr-12 11:30N 53°38' W 000°11'0 0.0
2015-Apr-12 10:33N 53°38' W 000°11'0 0.0
2015-Apr-12 09:33N 53°38' W 000°11'0 0.0
2015-Apr-12 08:29N 53°38' W 000°11'0 0.0
2015-Apr-12 07:32N 53°38' W 000°11'0 0.0
2015-Apr-12 06:31N 53°38' W 000°11'0 0.0
2015-Apr-12 05:31N 53°38' W 000°11'0 0.0
2015-Apr-12 04:33N 53°38' W 000°11'  
Track history (hours):
 
Tides and Currents Weather Stations Pressure Air Temp Water Temp Dewpoint Dewpoint Depression Visibility Wind Speed Wind Dir Waves Ship Positions

Flinterbirka

Last reported at 2015-Apr-22 03:33 UTC. Time now 2015-Apr-22 03:53 UTC.
Position N 54°21' E 009°54'.

Length 81 m; draft 5.5 m.

Type: Ship. MMSI: 246525000.

Date/timePositionNaut miles runAvg speedWind from/ knotsBaromVisibWave heightAir tempDewpointWater temp
2015-Apr-22 03:33N 54°21' E 009°54'7 7.1
2015-Apr-22 02:33N 54°22' E 010°06'1 1.3
2015-Apr-22 01:33N 54°22' E 010°08'3 3.4
2015-Apr-22 00:33N 54°24' E 010°12'10 9.2
2015-Apr-21 23:31N 54°32' E 010°23'  
2015-Apr-18 09:08N 54°43' E 010°46'711.1
2015-Apr-18 08:32N 54°37' E 010°40'1111.2
2015-Apr-18 07:33N 54°31' E 010°25'1110.6
2015-Apr-18 06:33N 54°23' E 010°12'2 2.2
2015-Apr-18 05:33N 54°22' E 010°09'5 4.7
2015-Apr-18 04:33N 54°21' E 010°01'8 7.4
2015-Apr-18 03:28N 54°21' E 009°47'11 5.6
2015-Apr-18 01:32N 54°13' E 009°35'9 6.5
2015-Apr-18 00:10N 54°09' E 009°22'4 6.6
2015-Apr-17 23:33N 54°05' E 009°19'8 8.4
2015-Apr-17 22:33N 53°57' E 009°15'1 1.0
2015-Apr-17 21:33N 53°57' E 009°14'4 4.1
2015-Apr-17 20:33N 53°54' E 009°09'2 1.6
2015-Apr-17 19:33N 53°53' E 009°06'3 3.2
2015-Apr-17 18:33N 53°52' E 009°01'8 8.0
2015-Apr-17 17:33N 53°50' E 008°48'8 7.5
2015-Apr-17 16:33N 53°56' E 008°39'8 7.9
2015-Apr-17 15:33N 53°59' E 008°27'9 8.8
2015-Apr-17 14:33N 53°60' E 008°12'9 9.4
2015-Apr-17 13:33N 53°58' E 007°56'10 9.8
2015-Apr-17 12:33N 53°56' E 007°40'1010.3
2015-Apr-17 11:33N 53°53' E 007°23'4611.3
2015-Apr-17 07:26N 53°41' E 006°07'1112.1
2015-Apr-17 06:34N 53°38' E 005°50'1212.3
2015-Apr-17 05:33N 53°34' E 005°30'1312.5
2015-Apr-17 04:33N 53°30' E 005°10'1312.8
2015-Apr-17 03:33N 53°26' E 004°50'5911.1
2015-Apr-16 22:14N 53°10' E 003°15'2810.5
2015-Apr-16 19:33N 53°01' E 002°30'1111.0
2015-Apr-16 18:33N 52°59' E 002°12'1212.1
2015-Apr-16 17:33N 52°59' E 001°52'1312.8
2015-Apr-16 16:33N 53°01' E 001°31'1312.7
2015-Apr-16 15:33N 53°01' E 001°09'4 0.1
2015-Apr-15 07:29N 53°01' E 001°03'38 1.1
2015-Apr-13 19:33N 53°30' E 000°20'1111.1
2015-Apr-13 18:34N 53°35' E 000°04'10 9.5
2015-Apr-13 17:33N 53°38' W 000°11'0 0.1
2015-Apr-13 16:31N 53°38' W 000°11'0 0.0
2015-Apr-13 15:31N 53°38' W 000°11'0 0.0
2015-Apr-13 14:27N 53°38' W 000°11'0 0.0
2015-Apr-13 13:33N 53°38' W 000°11'0 0.0
2015-Apr-13 12:32N 53°38' W 000°11'0 0.0
2015-Apr-13 11:29N 53°38' W 000°11'0 0.0
2015-Apr-13 10:32N 53°38' W 000°11'0 0.0
2015-Apr-13 09:31N 53°38' W 000°11'0 0.0
2015-Apr-13 08:31N 53°38' W 000°11'0 0.0
2015-Apr-13 07:33N 53°38' W 000°11'0 0.1
2015-Apr-13 06:30N 53°38' W 000°11'0 0.0
2015-Apr-13 05:29N 53°38' W 000°11'0 0.0
2015-Apr-13 04:32N 53°38' W 000°11'0 0.0
2015-Apr-13 03:32N 53°38' W 000°11'0 0.0
2015-Apr-13 02:31N 53°38' W 000°11'0 0.0
2015-Apr-13 01:28N 53°38' W 000°11'0 0.0
2015-Apr-13 00:33N 53°38' W 000°11'0 0.0
2015-Apr-12 23:33N 53°38' W 000°11'0 0.0
2015-Apr-12 22:29N 53°38' W 000°11'0 0.0
2015-Apr-12 21:32N 53°38' W 000°11'0 0.0
2015-Apr-12 20:31N 53°38' W 000°11'0 0.0
2015-Apr-12 19:25N 53°38' W 000°11'0 0.0
2015-Apr-12 18:31N 53°38' W 000°11'0 0.0
2015-Apr-12 17:33N 53°38' W 000°11'0 0.0
2015-Apr-12 16:33N 53°38' W 000°11'0 0.0
2015-Apr-12 15:32N 53°38' W 000°11'0 0.0
2015-Apr-12 14:32N 53°38' W 000°11'0 0.0
2015-Apr-12 13:31N 53°38' W 000°11'0 0.0
2015-Apr-12 12:31N 53°38' W 000°11'0 0.0
2015-Apr-12 11:30N 53°38' W 000°11'0 0.0
2015-Apr-12 10:33N 53°38' W 000°11'0 0.0
2015-Apr-12 09:33N 53°38' W 000°11'0 0.0
2015-Apr-12 08:29N 53°38' W 000°11'0 0.0
2015-Apr-12 07:32N 53°38' W 000°11'0 0.0
2015-Apr-12 06:31N 53°38' W 000°11'0 0.0
2015-Apr-12 05:31N 53°38' W 000°11'0 0.0
2015-Apr-12 04:33N 53°38' W 000°11'  

Dump ship's entire track history